createdAt,value
2018-09-24T00:00:38.386Z,0.90
2018-09-24T00:03:08.417Z,0.90
2018-09-24T00:05:38.408Z,1.27
2018-09-24T00:08:08.377Z,1.00
2018-09-24T00:10:38.463Z,1.20
2018-09-24T00:13:08.505Z,0.85
2018-09-24T00:15:38.409Z,1.15
2018-09-24T00:18:08.387Z,1.77
2018-09-24T00:20:38.512Z,0.80
2018-09-24T00:23:08.523Z,1.10
2018-09-24T00:25:38.514Z,1.10
2018-09-24T00:28:08.477Z,1.15
2018-09-24T00:30:38.428Z,0.90
2018-09-24T00:33:08.418Z,0.85
2018-09-24T00:35:38.449Z,0.90
2018-09-24T00:38:08.562Z,1.12
2018-09-24T00:40:38.520Z,1.22
2018-09-24T00:43:08.802Z,1.00
2018-09-24T00:45:38.539Z,1.00
2018-09-24T00:48:08.545Z,1.20
2018-09-24T00:50:38.513Z,1.12
2018-09-24T00:53:08.511Z,0.80
2018-09-24T00:55:38.489Z,0.90
2018-09-24T00:58:08.554Z,1.10
2018-09-24T01:00:38.587Z,1.10
2018-09-24T01:03:08.571Z,1.40
2018-09-24T01:05:38.639Z,1.12
2018-09-24T01:08:08.497Z,0.95
2018-09-24T01:10:38.497Z,1.00
2018-09-24T01:13:08.572Z,1.00
2018-09-24T01:15:38.625Z,1.05
2018-09-24T01:18:08.495Z,1.30
2018-09-24T01:20:38.675Z,1.10
2018-09-24T01:23:08.575Z,1.10
2018-09-24T01:25:38.562Z,1.10
2018-09-24T01:28:08.553Z,1.47
2018-09-24T01:30:38.597Z,0.75
2018-09-24T01:33:08.587Z,1.60
2018-09-24T01:35:38.638Z,0.98
2018-09-24T01:38:08.577Z,1.20
2018-09-24T01:40:38.639Z,1.20
2018-09-24T01:43:08.655Z,1.25
2018-09-24T01:45:38.606Z,1.40
2018-09-24T01:48:08.650Z,0.88
2018-09-24T01:50:38.671Z,1.10
2018-09-24T01:53:08.758Z,1.25
2018-09-24T01:55:38.894Z,1.17
2018-09-24T01:58:08.590Z,1.20
2018-09-24T02:00:38.635Z,1.00
2018-09-24T02:03:08.757Z,1.10
2018-09-24T02:05:38.699Z,1.15
2018-09-24T02:08:08.689Z,0.93
2018-09-24T02:10:38.705Z,1.00
2018-09-24T02:13:08.709Z,1.12
2018-09-24T02:15:38.714Z,1.22
2018-09-24T02:18:08.611Z,1.70
2018-09-24T02:20:46.511Z,1.25
2018-09-24T02:23:16.414Z,1.30
2018-09-24T02:25:45.736Z,1.17
2018-09-24T02:28:15.098Z,1.43
2018-09-24T02:30:44.359Z,1.50
2018-09-24T02:33:13.981Z,1.76
2018-09-24T02:35:49.506Z,1.25
2018-09-24T02:38:19.571Z,1.40
2018-09-24T02:40:48.932Z,1.77
2018-09-24T02:43:24.158Z,1.57
2018-09-24T02:45:54.645Z,1.50
2018-09-24T02:48:23.987Z,1.20
2018-09-24T02:50:53.269Z,1.30
2018-09-24T02:53:22.617Z,1.33
2018-09-24T02:55:51.953Z,1.03
2018-09-24T02:58:22.135Z,1.53
2018-09-24T03:00:51.508Z,1.90
2018-09-24T03:03:20.834Z,1.40
2018-09-24T03:05:50.135Z,1.20
2018-09-24T03:08:19.466Z,1.60
2018-09-24T03:10:48.998Z,1.98
2018-09-24T03:13:18.259Z,1.53
2018-09-24T03:15:47.634Z,1.53
2018-09-24T03:18:16.922Z,1.50
2018-09-24T03:20:46.285Z,1.60
2018-09-24T03:23:15.627Z,1.40
2018-09-24T03:25:44.951Z,1.40
2018-09-24T03:28:14.278Z,1.33
2018-09-24T03:30:43.620Z,1.50
2018-09-24T03:33:12.990Z,1.37
2018-09-24T03:35:42.394Z,1.30
2018-09-24T03:38:11.686Z,1.13
2018-09-24T03:40:41.059Z,1.10
2018-09-24T03:43:10.430Z,1.03
2018-09-24T03:45:39.729Z,1.00
2018-09-24T03:48:09.174Z,0.70
2018-09-24T03:50:38.929Z,0.70
2018-09-24T03:53:08.940Z,0.85
2018-09-24T03:55:38.918Z,0.80
2018-09-24T03:58:09.163Z,0.70
2018-09-24T04:00:38.946Z,0.80
2018-09-24T04:03:09.006Z,0.78
2018-09-24T04:05:44.111Z,0.82
2018-09-24T04:08:18.671Z,1.35
2018-09-24T04:10:53.289Z,0.80
2018-09-24T04:13:27.789Z,0.90
2018-09-24T04:16:02.399Z,0.93
2018-09-24T04:18:36.851Z,1.00
2018-09-24T04:21:11.392Z,0.80
2018-09-24T04:23:45.945Z,0.90
2018-09-24T04:26:20.506Z,0.97
2018-09-24T04:28:55.145Z,1.30
2018-09-24T04:31:29.725Z,0.80
2018-09-24T04:34:04.274Z,1.23
2018-09-24T04:36:38.790Z,0.77
2018-09-24T04:39:14.988Z,1.10
2018-09-24T04:41:49.634Z,1.10
2018-09-24T04:44:24.251Z,0.88
2018-09-24T04:46:58.840Z,0.90
2018-09-24T04:49:33.459Z,1.20
2018-09-24T04:52:08.081Z,1.23
2018-09-24T04:54:42.632Z,1.30
2018-09-24T04:57:17.271Z,1.37
2018-09-24T04:59:51.761Z,1.17
2018-09-24T05:02:26.273Z,1.30
2018-09-24T05:05:00.852Z,1.20
2018-09-24T05:07:35.295Z,1.50
2018-09-24T05:10:09.864Z,1.20
2018-09-24T05:12:44.350Z,1.20
2018-09-24T05:15:18.798Z,1.75
2018-09-24T05:17:53.384Z,1.50
2018-09-24T05:20:27.859Z,1.20
2018-09-24T05:23:02.332Z,1.47
2018-09-24T05:25:36.947Z,1.33
2018-09-24T05:28:11.571Z,1.40
2018-09-24T05:30:45.987Z,1.33
2018-09-24T05:33:20.558Z,1.57
2018-09-24T05:35:55.080Z,1.60
2018-09-24T05:38:29.498Z,1.20
2018-09-24T05:41:04.111Z,1.30
2018-09-24T05:43:38.791Z,1.30
2018-09-24T05:46:14.460Z,1.46
2018-09-24T05:48:49.207Z,1.50
2018-09-24T05:51:23.670Z,1.30
2018-09-24T05:53:58.267Z,1.52
2018-09-24T05:56:32.815Z,1.53
2018-09-24T05:59:07.332Z,2.15
2018-09-24T06:01:41.726Z,1.30
2018-09-24T06:04:16.230Z,1.37
2018-09-24T06:06:50.818Z,1.80
2018-09-24T06:09:25.346Z,1.47
2018-09-24T06:11:59.962Z,1.10
2018-09-24T06:14:34.493Z,1.47
2018-09-24T06:17:09.007Z,1.27
2018-09-24T06:19:44.428Z,1.60
2018-09-24T06:22:18.809Z,1.23
2018-09-24T06:24:53.520Z,1.63
2018-09-24T06:27:27.936Z,1.23
2018-09-24T06:30:02.469Z,1.77
2018-09-24T06:32:36.990Z,1.10
2018-09-24T06:35:11.416Z,1.50
2018-09-24T06:37:45.933Z,1.27
2018-09-24T06:40:20.397Z,1.30
2018-09-24T06:42:54.806Z,1.37
2018-09-24T06:45:29.358Z,2.00
2018-09-24T06:48:03.887Z,1.50
2018-09-24T06:50:38.333Z,1.57
2018-09-24T06:53:12.854Z,1.43
2018-09-24T06:55:47.413Z,1.60
2018-09-24T06:58:22.027Z,1.83
2018-09-24T07:00:56.815Z,1.37
2018-09-24T07:03:31.193Z,1.50
2018-09-24T07:06:05.753Z,1.53
2018-09-24T07:08:40.206Z,1.13
2018-09-24T07:11:14.906Z,1.70
2018-09-24T07:13:49.375Z,1.80
2018-09-24T07:16:24.032Z,1.37
2018-09-24T07:18:58.615Z,1.20
2018-09-24T07:21:36.211Z,1.50
2018-09-24T07:24:10.745Z,1.07
2018-09-24T07:26:45.419Z,1.67
2018-09-24T07:29:19.986Z,1.40
2018-09-24T07:31:54.590Z,1.42
2018-09-24T07:34:29.344Z,1.23
2018-09-24T07:37:03.878Z,1.10
2018-09-24T07:39:38.482Z,1.50
2018-09-24T07:42:13.142Z,1.10
2018-09-24T07:44:47.858Z,1.27
2018-09-24T07:47:22.377Z,1.43
2018-09-24T07:49:56.980Z,2.20
2018-09-24T07:52:31.468Z,1.93
2018-09-24T07:55:06.097Z,1.40
2018-09-24T07:57:40.576Z,1.60
2018-09-24T08:00:15.083Z,1.07
2018-09-24T08:02:49.642Z,1.57
2018-09-24T08:05:24.261Z,1.40
2018-09-24T08:07:58.883Z,1.10
2018-09-24T08:10:33.325Z,1.00
2018-09-24T08:13:07.908Z,1.30
2018-09-24T08:15:42.395Z,1.40
2018-09-24T08:18:17.114Z,0.93
2018-09-24T08:20:51.746Z,1.20
2018-09-24T08:23:26.273Z,1.20
2018-09-24T08:26:00.905Z,1.07
2018-09-24T08:28:35.275Z,0.93
2018-09-24T08:31:09.999Z,1.10
2018-09-24T08:33:44.834Z,1.30
2018-09-24T08:36:19.531Z,0.90
2018-09-24T08:38:53.987Z,1.20
2018-09-24T08:41:28.603Z,1.50
2018-09-24T08:44:03.063Z,1.10
2018-09-24T08:46:37.566Z,1.30
2018-09-24T08:49:12.266Z,1.07
2018-09-24T08:51:46.880Z,1.87
2018-09-24T08:54:21.402Z,1.00
2018-09-24T08:56:56.101Z,1.00
2018-09-24T08:59:30.576Z,0.78
2018-09-24T09:02:07.880Z,0.93
2018-09-24T09:04:42.412Z,0.93
2018-09-24T09:07:16.889Z,0.77
2018-09-24T09:09:51.346Z,0.63
2018-09-24T09:12:25.879Z,0.90
2018-09-24T09:15:00.488Z,0.87
2018-09-24T09:17:35.113Z,0.90
2018-09-24T09:20:09.713Z,1.10
2018-09-24T09:22:45.020Z,0.60
2018-09-24T09:25:19.442Z,0.90
2018-09-24T09:27:54.052Z,0.97
2018-09-24T09:30:28.718Z,1.00
2018-09-24T09:33:03.355Z,0.87
2018-09-24T09:35:37.851Z,1.10
2018-09-24T09:38:12.610Z,1.13
2018-09-24T09:40:47.203Z,1.07
2018-09-24T09:43:21.839Z,1.33
2018-09-24T09:45:56.561Z,1.27
2018-09-24T09:48:31.149Z,1.37
2018-09-24T09:51:05.610Z,0.80
2018-09-24T09:53:40.325Z,1.20
2018-09-24T09:56:14.919Z,0.95
2018-09-24T09:58:49.552Z,1.00
2018-09-24T10:01:24.129Z,1.00
2018-09-24T10:03:58.570Z,1.03
2018-09-24T10:06:33.042Z,0.70
2018-09-24T10:09:07.561Z,0.60
2018-09-24T10:11:42.566Z,0.60
2018-09-24T10:14:17.262Z,1.00
2018-09-24T10:16:51.934Z,1.17
2018-09-24T10:19:26.542Z,0.80
2018-09-24T10:22:01.116Z,0.60
2018-09-24T10:24:35.704Z,0.90
2018-09-24T10:27:10.156Z,0.60
2018-09-24T10:29:45.044Z,0.60
2018-09-24T10:32:19.653Z,0.50
2018-09-24T10:34:54.248Z,0.50
2018-09-24T10:37:28.849Z,0.70
2018-09-24T10:40:03.413Z,0.70
2018-09-24T10:42:38.399Z,0.60
2018-09-24T10:45:13.182Z,0.60
2018-09-24T10:47:49.006Z,0.63
2018-09-24T10:50:23.626Z,0.90
2018-09-24T10:52:58.915Z,0.50
2018-09-24T10:55:33.394Z,0.80
2018-09-24T10:58:07.899Z,0.53
2018-09-24T11:00:42.365Z,0.67
2018-09-24T11:03:17.334Z,0.50
2018-09-24T11:05:51.796Z,0.60
2018-09-24T11:08:26.412Z,0.50
2018-09-24T11:11:01.011Z,0.50
2018-09-24T11:13:35.847Z,0.80
2018-09-24T11:16:10.903Z,0.80
2018-09-24T11:18:46.532Z,0.90
2018-09-24T11:21:21.068Z,0.50
2018-09-24T11:23:55.681Z,0.77
2018-09-24T11:29:05.488Z,0.80
2018-09-24T11:31:40.115Z,0.80
2018-09-24T11:34:15.386Z,0.72
2018-09-24T11:36:49.923Z,0.50
2018-09-24T11:39:24.542Z,0.93
2018-09-24T11:41:59.183Z,0.90
2018-09-24T11:44:33.779Z,0.90
2018-09-24T11:47:08.522Z,0.80
2018-09-24T11:49:44.212Z,0.60
2018-09-24T11:52:18.848Z,0.60
2018-09-24T11:54:53.386Z,0.90
2018-09-24T11:57:27.971Z,0.87
2018-09-24T12:00:02.607Z,1.12
2018-09-24T12:02:37.168Z,0.63
2018-09-24T12:05:12.245Z,0.80
2018-09-24T12:07:46.651Z,0.80
2018-09-24T12:10:21.189Z,1.03
2018-09-24T12:12:55.735Z,0.90
2018-09-24T12:15:30.225Z,0.70
2018-09-24T12:18:04.820Z,1.10
2018-09-24T12:20:39.473Z,0.73
2018-09-24T12:23:14.509Z,0.80
2018-09-24T12:25:49.138Z,1.00
2018-09-24T12:28:23.712Z,0.90
2018-09-24T12:30:58.214Z,0.70
2018-09-24T12:33:32.774Z,0.90
2018-09-24T12:36:07.419Z,1.00
2018-09-24T12:38:41.829Z,0.80
2018-09-24T12:41:16.363Z,1.13
2018-09-24T12:43:50.960Z,0.70
2018-09-24T12:46:25.495Z,1.03
2018-09-24T12:49:00.148Z,0.70
2018-09-24T12:51:34.718Z,1.30
2018-09-24T12:54:09.218Z,0.90
2018-09-24T12:56:43.924Z,0.80
2018-09-24T12:59:18.598Z,0.50
2018-09-24T13:01:53.125Z,0.60
2018-09-24T13:04:27.597Z,0.70
2018-09-24T13:07:02.198Z,0.60
2018-09-24T13:09:36.754Z,0.73
2018-09-24T13:12:11.261Z,0.60
2018-09-24T13:14:45.823Z,0.68
2018-09-24T13:17:20.329Z,0.54
2018-09-24T13:19:54.826Z,0.67
2018-09-24T13:22:29.559Z,0.50
2018-09-24T13:25:04.001Z,0.60
2018-09-24T13:27:38.706Z,0.70
2018-09-24T13:30:13.392Z,0.70
2018-09-24T13:32:48.192Z,0.60
2018-09-24T13:35:22.774Z,0.60
2018-09-24T13:37:57.448Z,0.60
2018-09-24T13:40:32.145Z,0.57
2018-09-24T13:43:06.940Z,0.50
2018-09-24T13:45:41.450Z,0.60
2018-09-24T13:48:16.751Z,0.70
2018-09-24T13:51:04.762Z,0.50
2018-09-24T13:53:39.539Z,0.60
2018-09-24T13:56:14.266Z,0.57
2018-09-24T13:58:49.072Z,0.50
2018-09-24T14:01:23.691Z,0.68
2018-09-24T14:04:01.427Z,0.45
2018-09-24T14:06:36.236Z,0.50
2018-09-24T14:09:13.271Z,0.50
2018-09-24T14:11:48.047Z,0.70
2018-09-24T14:14:22.749Z,0.60
2018-09-24T14:16:57.878Z,0.60
2018-09-24T14:19:32.565Z,0.53
2018-09-24T14:22:18.539Z,0.50
2018-09-24T14:24:54.614Z,0.60
2018-09-24T14:27:36.657Z,0.70
2018-09-24T14:30:14.011Z,0.73
2018-09-24T14:32:50.146Z,0.80
2018-09-24T14:35:25.044Z,1.00
2018-09-24T14:38:02.214Z,0.60
2018-09-24T14:40:36.910Z,0.70
2018-09-24T14:43:11.389Z,1.00
2018-09-24T14:45:47.443Z,0.55
2018-09-24T14:48:22.218Z,0.90
2018-09-24T14:50:56.919Z,0.50
2018-09-24T14:53:33.499Z,0.50
2018-09-24T14:56:09.653Z,0.80
2018-09-24T14:58:44.535Z,0.40
2018-09-24T15:01:19.237Z,0.63
2018-09-24T15:03:53.656Z,0.40
2018-09-24T15:06:28.270Z,0.70
2018-09-24T15:09:02.862Z,0.87
2018-09-24T15:11:37.454Z,0.80
2018-09-24T15:14:12.060Z,0.60
2018-09-24T15:16:46.495Z,0.60
2018-09-24T15:19:20.957Z,0.80
2018-09-24T15:21:55.632Z,0.60
2018-09-24T15:24:30.229Z,0.80
2018-09-24T15:27:04.790Z,0.77
2018-09-24T15:29:39.250Z,0.53
2018-09-24T15:32:13.845Z,0.80
2018-09-24T15:34:48.313Z,1.00
2018-09-24T15:37:22.990Z,0.70
2018-09-24T15:39:57.606Z,0.90
2018-09-24T15:42:32.215Z,0.80
2018-09-24T15:45:06.701Z,0.50
2018-09-24T15:47:41.385Z,1.30
2018-09-24T15:50:16.211Z,1.20
2018-09-24T15:52:50.867Z,0.80
2018-09-24T15:55:25.440Z,0.90
2018-09-24T15:58:00.166Z,1.10
2018-09-24T16:00:34.561Z,1.03
2018-09-24T16:03:09.143Z,1.00
2018-09-24T16:05:43.706Z,1.40
2018-09-24T16:08:18.495Z,1.13
2018-09-24T16:10:53.105Z,0.80
2018-09-24T16:13:27.615Z,0.90
2018-09-24T16:16:02.199Z,0.80
2018-09-24T16:18:36.852Z,0.80
2018-09-24T16:21:11.382Z,0.90
2018-09-24T16:23:46.294Z,0.68
2018-09-24T16:26:20.746Z,0.70
2018-09-24T16:28:55.262Z,0.80
2018-09-24T16:31:29.923Z,0.83
2018-09-24T16:34:04.574Z,0.70
2018-09-24T16:36:55.150Z,0.90
2018-09-24T16:39:29.613Z,0.90
2018-09-24T16:42:04.136Z,0.87
2018-09-24T16:44:38.715Z,0.93
2018-09-24T16:47:13.331Z,1.00
2018-09-24T16:49:47.982Z,0.83
2018-09-24T16:52:22.726Z,0.93
2018-09-24T16:54:57.378Z,1.00
2018-09-24T16:57:32.081Z,0.83
2018-09-24T17:00:06.779Z,1.17
2018-09-24T17:02:41.453Z,1.13
2018-09-24T17:05:16.200Z,0.90
2018-09-24T17:07:50.794Z,1.17
2018-09-24T17:10:25.426Z,0.97
2018-09-24T17:12:59.912Z,0.83
2018-09-24T17:15:34.489Z,1.00
2018-09-24T17:18:09.145Z,1.70
2018-09-24T17:20:43.563Z,0.97
2018-09-24T17:23:18.076Z,1.00
2018-09-24T17:25:52.585Z,1.30
2018-09-24T17:28:27.096Z,1.67
2018-09-24T17:31:01.604Z,1.10
2018-09-24T17:33:36.115Z,1.40
2018-09-24T17:36:10.674Z,1.30
2018-09-24T17:38:46.432Z,1.43
2018-09-24T17:41:20.911Z,1.25
2018-09-24T17:43:55.486Z,1.30
2018-09-24T17:46:30.149Z,1.10
2018-09-24T17:49:04.666Z,1.03
2018-09-24T17:51:39.182Z,1.00
2018-09-24T17:54:13.689Z,1.10
2018-09-24T17:56:48.285Z,1.40
2018-09-24T17:59:22.931Z,1.40
2018-09-24T18:01:57.569Z,1.20
2018-09-24T18:04:32.006Z,1.33
2018-09-24T18:07:06.519Z,1.10
2018-09-24T18:09:41.118Z,1.07
2018-09-24T18:12:16.462Z,1.00
2018-09-24T18:14:51.026Z,1.30
2018-09-24T18:17:25.640Z,1.10
2018-09-24T18:20:00.051Z,1.00
2018-09-24T18:22:34.502Z,1.13
2018-09-24T18:25:09.103Z,1.10
2018-09-24T18:27:43.565Z,1.10
2018-09-24T18:30:18.030Z,1.07
2018-09-24T18:32:52.524Z,1.20
2018-09-24T18:35:26.958Z,1.17
2018-09-24T18:38:01.389Z,0.97
2018-09-24T18:40:36.036Z,1.37
2018-09-24T18:43:10.574Z,1.27
2018-09-24T18:45:45.155Z,1.20
2018-09-24T18:48:19.798Z,1.20
2018-09-24T18:50:54.370Z,1.17
2018-09-24T18:53:28.993Z,0.87
2018-09-24T18:56:03.558Z,1.15
2018-09-24T18:58:38.094Z,1.00
2018-09-24T19:01:12.956Z,1.20
2018-09-24T19:03:47.491Z,1.47
2018-09-24T19:06:22.251Z,1.20
2018-09-24T19:08:56.858Z,1.07
2018-09-24T19:11:31.402Z,1.20
2018-09-24T19:14:06.064Z,1.10
2018-09-24T19:16:40.519Z,1.03
2018-09-24T19:19:14.946Z,1.07
2018-09-24T19:21:49.692Z,1.13
2018-09-24T19:24:24.197Z,1.20
2018-09-24T19:26:58.795Z,1.30
2018-09-24T19:29:33.403Z,1.40
2018-09-24T19:32:08.014Z,1.70
2018-09-24T19:34:42.543Z,1.50
2018-09-24T19:37:17.105Z,1.97
2018-09-24T19:39:51.503Z,2.90
2018-09-24T19:42:26.054Z,2.23
2018-09-24T19:45:00.503Z,2.00
2018-09-24T19:47:35.068Z,2.00
2018-09-24T19:50:09.506Z,1.60
2018-09-24T19:52:43.907Z,2.27
2018-09-24T19:55:18.407Z,1.30
2018-09-24T19:57:53.082Z,1.53
2018-09-24T20:00:27.815Z,1.40
2018-09-24T20:03:02.249Z,1.70
2018-09-24T20:05:36.933Z,1.53
2018-09-24T20:08:11.795Z,1.43
2018-09-24T20:10:46.753Z,1.15
2018-09-24T20:13:21.306Z,1.03
2018-09-24T20:15:55.795Z,1.20
2018-09-24T20:18:30.318Z,1.10
2018-09-24T20:21:04.806Z,1.60
2018-09-24T20:23:39.309Z,1.40
2018-09-24T20:26:13.762Z,1.07
2018-09-24T20:28:48.210Z,1.40
2018-09-24T20:31:22.797Z,1.00
2018-09-24T20:33:57.364Z,1.43
2018-09-24T20:36:31.870Z,1.30
2018-09-24T20:39:06.370Z,0.97
2018-09-24T20:41:40.950Z,1.07
2018-09-24T20:44:16.589Z,1.00
2018-09-24T20:46:51.150Z,1.40
2018-09-24T20:49:25.620Z,1.17
2018-09-24T20:52:00.200Z,1.03
2018-09-24T20:54:34.768Z,1.00
2018-09-24T20:57:09.291Z,0.97
2018-09-24T20:59:43.835Z,1.03
2018-09-24T21:02:18.191Z,1.43
2018-09-24T21:04:52.605Z,0.90
2018-09-24T21:07:27.134Z,0.90
2018-09-24T21:10:01.577Z,0.93
2018-09-24T21:12:36.122Z,1.33
2018-09-24T21:15:10.659Z,1.33
2018-09-24T21:17:45.379Z,1.40
2018-09-24T21:20:19.886Z,1.15
2018-09-24T21:22:54.399Z,1.20
2018-09-24T21:25:28.875Z,1.20
2018-09-24T21:28:03.258Z,1.33
2018-09-24T21:30:37.662Z,1.15
2018-09-24T21:33:12.287Z,1.00
2018-09-24T21:35:47.033Z,1.15
2018-09-24T21:38:21.545Z,1.30
2018-09-24T21:40:56.082Z,1.40
2018-09-24T21:43:30.692Z,1.10
2018-09-24T21:46:05.421Z,1.10
2018-09-24T21:48:39.738Z,1.12
2018-09-24T21:51:14.172Z,1.07
2018-09-24T21:53:48.709Z,1.40
2018-09-24T21:56:23.165Z,1.30
2018-09-24T21:58:57.743Z,1.10
2018-09-24T22:01:32.198Z,1.50
2018-09-24T22:04:06.770Z,1.10
2018-09-24T22:06:41.173Z,1.30
2018-09-24T22:09:16.812Z,1.10
2018-09-24T22:11:51.287Z,1.12
2018-09-24T22:14:25.801Z,1.17
2018-09-24T22:17:00.181Z,1.40
2018-09-24T22:19:34.796Z,1.10
2018-09-24T22:22:09.266Z,1.17
2018-09-24T22:24:43.884Z,1.53
2018-09-24T22:27:18.340Z,1.63
2018-09-24T22:29:53.371Z,1.20
2018-09-24T22:32:28.038Z,1.47
2018-09-24T22:35:02.504Z,1.37
2018-09-24T22:37:37.094Z,1.20
2018-09-24T22:40:12.014Z,1.13
2018-09-24T22:42:47.119Z,1.20
2018-09-24T22:45:21.563Z,1.30
2018-09-24T22:47:55.954Z,1.10
2018-09-24T22:50:30.534Z,1.50
2018-09-24T22:53:05.042Z,1.00
2018-09-24T22:55:39.588Z,1.07
2018-09-24T22:58:14.422Z,1.32
2018-09-24T23:00:49.106Z,1.37
2018-09-24T23:03:23.649Z,1.40
2018-09-24T23:05:58.197Z,1.30
2018-09-24T23:08:32.823Z,1.00
2018-09-24T23:11:07.402Z,1.10
2018-09-24T23:13:41.947Z,1.33
2018-09-24T23:16:17.266Z,1.12
2018-09-24T23:18:51.848Z,1.10
2018-09-24T23:21:26.423Z,1.37
2018-09-24T23:24:00.908Z,1.50
2018-09-24T23:26:35.576Z,1.40
2018-09-24T23:29:10.084Z,1.50
2018-09-24T23:31:44.511Z,1.40
2018-09-24T23:34:18.863Z,1.43
2018-09-24T23:36:53.403Z,1.40
2018-09-24T23:39:27.942Z,1.40
2018-09-24T23:42:02.503Z,1.20
2018-09-24T23:44:37.244Z,1.03
2018-09-24T23:47:16.743Z,1.30
2018-09-24T23:49:51.402Z,1.60
2018-09-24T23:52:25.862Z,1.90
2018-09-24T23:55:00.537Z,1.37
2018-09-24T23:57:35.056Z,1.30
